Time;durP1;ratioP1;P1;durP2;ratioP2;P2;SDS_P1;SDS_P2;PMS_P1;PMS_P2;Temp;Humidity;BMP_temperature;BMP_pressure;BME280_temperature;BME280_humidity;BME280_pressure;Samples;Min_cycle;Max_cycle;Signal;HPM_P1;HPM_P2
2023/06/05 00:02:09;;;;;;;5.30;1.40;;;12.70;99.90;;;;;;5113782;28;20047;-86
2023/06/05 00:04:36;;;;;;;4.10;1.67;;;12.80;99.90;;;;;;5113610;28;20035;-86
2023/06/05 00:07:02;;;;;;;3.67;1.38;;;12.60;99.90;;;;;;5113767;28;20071;-87
2023/06/05 00:09:28;;;;;;;3.03;1.65;;;12.70;99.90;;;;;;5117012;28;20406;-86
2023/06/05 00:11:53;;;;;;;2.58;1.30;;;12.70;99.90;;;;;;5115050;28;20047;-87
2023/06/05 00:14:19;;;;;;;2.95;1.40;;;12.70;99.90;;;;;;5113483;28;20051;-87
2023/06/05 00:16:45;;;;;;;3.28;1.42;;;12.60;99.90;;;;;;5114424;28;20043;-87
2023/06/05 00:19:12;;;;;;;2.83;1.60;;;12.40;99.90;;;;;;5113551;28;20517;-87
2023/06/05 00:21:37;;;;;;;3.95;1.80;;;12.30;99.90;;;;;;5113698;28;20082;-87
2023/06/05 00:24:03;;;;;;;4.55;1.80;;;12.20;99.90;;;;;;5113280;28;20075;-88
2023/06/05 00:26:29;;;;;;;3.10;1.60;;;12.20;99.90;;;;;;5113718;28;20080;-87
2023/06/05 00:28:54;;;;;;;4.55;1.98;;;12.30;99.90;;;;;;5113154;28;20135;-87
2023/06/05 00:31:21;;;;;;;6.03;2.35;;;12.20;99.90;;;;;;5113376;28;20083;-87
2023/06/05 00:33:51;;;;;;;4.38;2.10;;;12.20;99.90;;;;;;5113151;28;20119;-87
2023/06/05 00:36:18;;;;;;;4.75;2.40;;;12.10;99.90;;;;;;5114055;28;20047;-86
2023/06/05 00:38:45;;;;;;;3.63;2.38;;;12.10;99.90;;;;;;5113297;28;20051;-87
2023/06/05 00:41:10;;;;;;;3.95;2.47;;;12.00;99.90;;;;;;5113403;28;20044;-85
2023/06/05 00:43:37;;;;;;;3.80;2.28;;;12.00;99.90;;;;;;5114198;28;20509;-87
2023/06/05 00:46:05;;;;;;;4.38;2.35;;;12.00;99.90;;;;;;5114592;28;20439;-86
2023/06/05 00:48:33;;;;;;;5.05;2.10;;;12.00;99.90;;;;;;5116824;28;20491;-87
2023/06/05 00:50:58;;;;;;;4.03;2.45;;;12.00;99.90;;;;;;5116052;28;20364;-86
2023/06/05 00:53:30;;;;;;;4.25;2.08;;;12.10;99.90;;;;;;5113644;28;20528;-86
2023/06/05 00:55:57;;;;;;;3.33;2.00;;;12.10;99.90;;;;;;5114503;28;20044;-87
2023/06/05 00:58:23;;;;;;;4.57;1.85;;;12.20;99.90;;;;;;5113741;28;20047;-88
2023/06/05 01:00:49;;;;;;;3.33;1.65;;;12.30;99.90;;;;;;5112660;28;20126;-87
2023/06/05 01:03:16;;;;;;;3.33;1.88;;;12.40;99.90;;;;;;5113733;28;20135;-87
2023/06/05 01:05:43;;;;;;;4.07;2.30;;;12.30;99.90;;;;;;5113100;28;20046;-87
2023/06/05 01:08:12;;;;;;;5.15;2.00;;;12.20;99.90;;;;;;5113014;28;20089;-87
2023/06/05 01:10:38;;;;;;;3.33;1.80;;;12.20;99.90;;;;;;5112972;28;20043;-86
2023/06/05 01:13:03;;;;;;;3.67;1.70;;;12.30;99.90;;;;;;5113080;28;20131;-87
2023/06/05 01:15:29;;;;;;;4.38;2.03;;;12.30;99.90;;;;;;5113066;28;20399;-87
2023/06/05 01:18:00;;;;;;;3.20;1.70;;;12.30;99.90;;;;;;5114914;28;20058;-87
2023/06/05 01:20:36;;;;;;;3.95;1.58;;;12.40;99.90;;;;;;5113106;28;20550;-86
2023/06/05 01:23:03;;;;;;;3.05;1.70;;;12.50;99.90;;;;;;5112570;28;20050;-86
2023/06/05 01:25:29;;;;;;;3.10;1.70;;;12.50;99.90;;;;;;5112876;28;20058;-86
2023/06/05 01:28:06;;;;;;;5.40;1.73;;;12.50;99.90;;;;;;5113056;28;20399;-87
2023/06/05 01:30:46;;;;;;;4.22;1.73;;;12.40;99.90;;;;;;5113021;28;20040;-86
2023/06/05 01:33:20;;;;;;;3.95;1.60;;;12.50;99.90;;;;;;5113708;28;20050;-86
2023/06/05 01:35:51;;;;;;;5.50;1.60;;;12.40;99.90;;;;;;5113936;28;20084;-87
2023/06/05 01:38:17;;;;;;;3.25;1.90;;;12.40;99.90;;;;;;5114429;28;20036;-87
2023/06/05 01:40:45;;;;;;;3.00;1.80;;;12.40;99.90;;;;;;5113327;28;20499;-87
2023/06/05 01:43:12;;;;;;;3.17;1.38;;;12.40;99.90;;;;;;5112747;28;20355;-87
2023/06/05 01:45:40;;;;;;;5.00;1.83;;;12.40;99.90;;;;;;5112532;28;20056;-87
2023/06/05 01:48:10;;;;;;;3.83;1.65;;;12.40;99.90;;;;;;5112761;28;20395;-87
2023/06/05 01:50:37;;;;;;;3.33;1.73;;;12.40;99.90;;;;;;5113488;28;20040;-86
2023/06/05 01:53:04;;;;;;;5.05;1.83;;;12.40;99.90;;;;;;5114530;28;20127;-85
2023/06/05 01:55:31;;;;;;;3.58;1.73;;;12.40;99.90;;;;;;5114928;28;20119;-86
2023/06/05 01:57:56;;;;;;;3.60;1.58;;;12.50;99.90;;;;;;5115442;28;20050;-86
2023/06/05 02:00:22;;;;;;;2.78;1.40;;;12.50;99.90;;;;;;5116586;28;20048;-86
2023/06/05 02:02:53;;;;;;;3.40;1.40;;;12.50;99.90;;;;;;5115943;28;20051;-86
2023/06/05 02:05:22;;;;;;;3.38;1.65;;;12.40;99.90;;;;;;5116169;28;20047;-86
2023/06/05 02:07:55;;;;;;;3.47;1.58;;;12.40;99.90;;;;;;5116841;28;20043;-86
2023/06/05 02:10:20;;;;;;;3.80;1.65;;;12.40;99.90;;;;;;5117218;28;20409;-87
2023/06/05 02:12:47;;;;;;;2.88;1.55;;;12.40;99.90;;;;;;5116109;28;20076;-86
2023/06/05 02:15:13;;;;;;;3.08;1.50;;;12.30;99.90;;;;;;5116767;28;20047;-86
2023/06/05 02:17:44;;;;;;;2.92;1.23;;;12.30;99.90;;;;;;5118021;28;20058;-86
2023/06/05 02:20:15;;;;;;;4.30;1.60;;;12.40;99.90;;;;;;5116002;28;20494;-87
2023/06/05 02:22:41;;;;;;;3.03;1.58;;;12.30;99.90;;;;;;5116101;28;20134;-87
2023/06/05 02:25:08;;;;;;;3.33;1.70;;;12.30;99.90;;;;;;5115508;28;20047;-77
2023/06/05 02:27:34;;;;;;;4.38;1.65;;;12.30;99.90;;;;;;5115350;28;20044;-87
2023/06/05 02:29:59;;;;;;;3.80;1.63;;;12.20;99.90;;;;;;5117838;28;20047;-86
2023/06/05 02:32:26;;;;;;;3.15;1.70;;;12.30;99.90;;;;;;5115963;28;20122;-86
2023/06/05 02:34:52;;;;;;;4.00;1.50;;;12.30;99.90;;;;;;5117494;28;20059;-86
2023/06/05 02:37:18;;;;;;;3.42;1.52;;;12.40;99.90;;;;;;5117280;28;20088;-86
2023/06/05 02:39:45;;;;;;;3.65;1.42;;;12.40;99.90;;;;;;5116321;28;20043;-86
2023/06/05 02:42:12;;;;;;;3.92;1.60;;;12.40;99.90;;;;;;5115829;28;20387;-86
2023/06/05 02:44:38;;;;;;;2.42;1.50;;;12.40;99.90;;;;;;5115153;28;20126;-86
2023/06/05 02:47:04;;;;;;;2.95;1.73;;;12.40;99.90;;;;;;5115033;28;20126;-86
2023/06/05 02:49:31;;;;;;;4.38;1.55;;;12.40;99.90;;;;;;5115287;28;20040;-87
2023/06/05 02:51:57;;;;;;;5.75;1.58;;;12.40;99.90;;;;;;5115246;28;20075;-87
2023/06/05 02:54:23;;;;;;;3.92;1.45;;;12.40;99.90;;;;;;5115028;28;20071;-87
2023/06/05 02:56:49;;;;;;;3.85;1.38;;;12.40;99.90;;;;;;5115258;28;20068;-88
2023/06/05 02:59:15;;;;;;;3.83;1.80;;;12.40;99.90;;;;;;5115121;28;20056;-87
2023/06/05 03:01:43;;;;;;;2.78;1.58;;;12.40;99.90;;;;;;5116245;28;20044;-87
2023/06/05 03:04:09;;;;;;;3.53;1.70;;;12.40;99.90;;;;;;5116601;28;20091;-87
2023/06/05 03:06:35;;;;;;;4.28;1.90;;;12.40;99.90;;;;;;5117813;28;20032;-86
2023/06/05 03:09:01;;;;;;;3.53;2.05;;;12.40;99.90;;;;;;5115146;28;20043;-87
2023/06/05 03:11:26;;;;;;;3.60;1.75;;;12.40;99.90;;;;;;5116840;28;20043;-87
2023/06/05 03:13:59;;;;;;;3.40;1.50;;;12.40;99.90;;;;;;5116257;28;20050;-86
2023/06/05 03:16:33;;;;;;;4.25;1.65;;;12.40;99.90;;;;;;5115677;28;20431;-87
2023/06/05 03:18:59;;;;;;;3.35;1.55;;;12.40;99.90;;;;;;5114979;28;20114;-87
2023/06/05 03:21:24;;;;;;;4.80;1.67;;;12.40;99.90;;;;;;5098114;28;20124;-87
2023/06/05 03:26:48;;;;;;;3.13;1.58;;;12.30;99.90;;;;;;5110069;28;20052;-86
2023/06/05 03:29:13;;;;;;;4.43;1.55;;;12.40;99.90;;;;;;5114379;28;20055;-86
2023/06/05 03:31:39;;;;;;;3.38;1.60;;;12.40;99.90;;;;;;5114159;28;20509;-85
2023/06/05 03:34:05;;;;;;;3.05;1.75;;;12.40;99.90;;;;;;5113298;28;20056;-86
2023/06/05 03:36:33;;;;;;;3.63;1.70;;;12.40;99.90;;;;;;5114325;28;20079;-87
2023/06/05 03:38:59;;;;;;;3.33;1.60;;;12.40;99.90;;;;;;5114721;28;20563;-87
2023/06/05 03:41:28;;;;;;;3.70;1.92;;;12.40;99.90;;;;;;5114611;28;20062;-87
2023/06/05 03:43:54;;;;;;;2.83;1.60;;;12.40;99.90;;;;;;5115024;28;20036;-84
2023/06/05 03:46:20;;;;;;;3.10;1.30;;;12.30;99.90;;;;;;5116130;28;20056;-87
2023/06/05 03:48:48;;;;;;;3.30;1.80;;;12.30;99.90;;;;;;5114273;28;20096;-87
2023/06/05 03:51:18;;;;;;;4.03;1.92;;;12.30;99.90;;;;;;5114020;28;20044;-86
2023/06/05 03:53:44;;;;;;;3.67;1.88;;;12.30;99.90;;;;;;5114178;28;20090;-86
2023/06/05 03:56:11;;;;;;;3.85;2.05;;;12.30;99.90;;;;;;5116507;28;20044;-87
2023/06/05 03:58:38;;;;;;;5.43;1.80;;;12.30;99.90;;;;;;5114195;28;20471;-87
2023/06/05 04:01:04;;;;;;;3.20;2.10;;;12.40;99.90;;;;;;5114501;28;20044;-87
2023/06/05 04:03:37;;;;;;;3.83;1.90;;;12.40;99.90;;;;;;5114934;28;20130;-87
2023/06/05 04:06:04;;;;;;;4.40;1.92;;;12.40;99.90;;;;;;5114795;28;20083;-86
2023/06/05 04:08:30;;;;;;;5.63;2.10;;;12.40;99.90;;;;;;5113563;28;20051;-86
2023/06/05 04:10:59;;;;;;;4.07;1.90;;;12.30;99.90;;;;;;5113586;28;20050;-87
2023/06/05 04:13:25;;;;;;;5.55;2.00;;;12.30;99.90;;;;;;5113667;28;20040;-87
2023/06/05 04:15:50;;;;;;;3.83;1.85;;;12.30;99.90;;;;;;5114566;28;20043;-86
2023/06/05 04:18:16;;;;;;;3.72;2.15;;;12.30;99.90;;;;;;5114421;28;20044;-87
2023/06/05 04:20:42;;;;;;;3.75;1.95;;;12.30;99.90;;;;;;5113947;28;20406;-87
2023/06/05 04:23:10;;;;;;;4.40;1.90;;;12.30;99.90;;;;;;5113883;28;20101;-87
2023/06/05 04:25:36;;;;;;;4.75;2.45;;;12.40;99.90;;;;;;5114919;28;20044;-86
2023/06/05 04:28:03;;;;;;;8.38;2.22;;;12.30;99.90;;;;;;5113438;28;20405;-86
2023/06/05 04:30:29;;;;;;;4.70;2.20;;;12.40;99.90;;;;;;5114136;28;20101;-87
2023/06/05 04:32:55;;;;;;;4.35;2.25;;;12.40;99.90;;;;;;5113550;28;20122;-87
2023/06/05 04:35:21;;;;;;;4.47;2.25;;;12.30;99.90;;;;;;5113486;28;20075;-86
2023/06/05 04:37:48;;;;;;;6.35;2.42;;;12.40;99.90;;;;;;5113908;28;20074;-86
2023/06/05 04:40:16;;;;;;;8.02;2.17;;;12.30;99.90;;;;;;5114645;28;20039;-87
2023/06/05 04:42:42;;;;;;;13.20;3.08;;;12.30;99.90;;;;;;5113235;28;20100;-85
2023/06/05 04:45:11;;;;;;;8.38;2.80;;;12.30;99.90;;;;;;5112514;28;20059;-86
2023/06/05 04:47:43;;;;;;;5.32;2.30;;;12.40;99.90;;;;;;5112728;28;20070;-85
2023/06/05 04:50:21;;;;;;;4.47;2.40;;;12.50;99.90;;;;;;5112810;28;20054;-85
2023/06/05 04:52:47;;;;;;;4.28;2.03;;;12.50;99.90;;;;;;5112765;28;20081;-86
2023/06/05 04:55:12;;;;;;;7.43;2.63;;;12.50;99.90;;;;;;5112776;28;20079;-85
2023/06/05 04:57:38;;;;;;;4.40;2.33;;;12.50;99.90;;;;;;5112592;28;20036;-86
2023/06/05 05:00:05;;;;;;;5.90;2.83;;;12.40;99.90;;;;;;5112852;28;20082;-86
2023/06/05 05:02:31;;;;;;;5.30;2.47;;;12.40;99.90;;;;;;5112885;28;20122;-86
2023/06/05 05:04:57;;;;;;;5.30;3.00;;;12.40;99.90;;;;;;5112562;28;20119;-87
2023/06/05 05:07:24;;;;;;;4.40;2.53;;;12.40;99.90;;;;;;5112490;28;20047;-86
2023/06/05 05:09:49;;;;;;;4.88;2.70;;;12.30;99.90;;;;;;5112830;28;20256;-85
2023/06/05 05:12:15;;;;;;;5.22;2.80;;;12.30;99.90;;;;;;5113041;28;20113;-86
2023/06/05 05:14:41;;;;;;;6.47;2.90;;;12.30;99.90;;;;;;5113087;28;20126;-86
2023/06/05 05:17:06;;;;;;;4.70;2.72;;;12.30;99.90;;;;;;5114132;28;20043;-87
2023/06/05 05:19:32;;;;;;;5.50;2.90;;;12.30;99.90;;;;;;5112729;28;20085;-85
2023/06/05 05:21:58;;;;;;;7.32;2.85;;;12.30;99.90;;;;;;5112836;28;20130;-85
2023/06/05 05:24:26;;;;;;;14.52;5.05;;;12.30;99.90;;;;;;5112452;28;20047;-85
2023/06/05 05:26:52;;;;;;;10.73;3.58;;;12.50;99.90;;;;;;5112317;28;20044;-86
2023/06/05 05:29:18;;;;;;;8.35;3.40;;;12.50;99.90;;;;;;5112555;28;20126;-85
2023/06/05 05:31:44;;;;;;;9.98;3.63;;;12.60;99.90;;;;;;5112389;28;20040;-86
2023/06/05 05:34:10;;;;;;;12.25;2.72;;;12.70;99.90;;;;;;5116070;28;20051;-86
2023/06/05 05:36:36;;;;;;;6.65;3.25;;;12.70;99.90;;;;;;5116269;28;20061;-86
2023/06/05 05:39:07;;;;;;;10.15;3.20;;;12.70;99.90;;;;;;5117328;28;20048;-86
2023/06/05 05:41:33;;;;;;;6.10;3.20;;;12.80;99.90;;;;;;5116446;28;20498;-85
2023/06/05 05:43:59;;;;;;;8.25;3.28;;;12.80;99.90;;;;;;5116121;28;20502;-85
2023/06/05 05:46:28;;;;;;;8.27;3.22;;;12.80;99.90;;;;;;5116028;28;20051;-86
2023/06/05 05:48:54;;;;;;;12.15;3.53;;;12.90;99.90;;;;;;5115925;28;20109;-86
2023/06/05 05:51:21;;;;;;;6.25;3.35;;;13.00;99.90;;;;;;5111840;28;20052;-85
2023/06/05 05:53:46;;;;;;;8.23;2.67;;;13.00;99.90;;;;;;5096157;28;20105;-86
2023/06/05 05:56:12;;;;;;;5.72;2.63;;;13.00;99.90;;;;;;5096257;28;20426;-86
2023/06/05 05:58:38;;;;;;;6.90;3.05;;;13.10;99.90;;;;;;5095665;28;20467;-86
2023/06/05 06:01:03;;;;;;;5.47;2.70;;;13.20;99.90;;;;;;5095511;28;20380;-86
2023/06/05 06:03:34;;;;;;;6.32;2.97;;;13.20;99.90;;;;;;5095287;28;20047;-86
2023/06/05 06:06:02;;;;;;;7.93;3.13;;;13.20;99.90;;;;;;5095404;28;20415;-86
2023/06/05 06:08:27;;;;;;;5.82;2.75;;;13.20;99.90;;;;;;5096745;28;20059;-86
2023/06/05 06:10:54;;;;;;;5.15;2.40;;;13.20;99.90;;;;;;5103821;28;20032;-85
2023/06/05 06:13:20;;;;;;;9.65;2.92;;;13.20;99.90;;;;;;5096100;28;20502;-86
2023/06/05 06:15:46;;;;;;;11.70;3.25;;;13.30;99.90;;;;;;5097499;28;20487;-87
2023/06/05 06:18:12;;;;;;;9.20;3.00;;;13.20;99.90;;;;;;5097665;28;20044;-86
2023/06/05 06:20:41;;;;;;;5.97;2.83;;;13.30;99.90;;;;;;5112159;28;20039;-86
2023/06/05 06:23:06;;;;;;;8.43;2.92;;;13.30;99.90;;;;;;5095205;28;20479;-86
2023/06/05 06:25:32;;;;;;;9.98;3.30;;;13.20;99.90;;;;;;5094883;28;20036;-86
2023/06/05 06:27:59;;;;;;;6.65;3.15;;;13.40;99.90;;;;;;5094872;28;20040;-85
2023/06/05 06:30:26;;;;;;;7.50;2.95;;;13.50;99.90;;;;;;5094858;28;20040;-85
2023/06/05 06:32:52;;;;;;;8.32;3.13;;;13.40;99.90;;;;;;5094677;28;20465;-84
2023/06/05 06:35:19;;;;;;;6.32;2.70;;;13.50;99.90;;;;;;5094611;28;20055;-85
2023/06/05 06:37:45;;;;;;;5.40;2.55;;;13.50;99.90;;;;;;5095122;28;20491;-85
2023/06/05 06:40:11;;;;;;;12.02;4.28;;;13.60;99.90;;;;;;5094802;28;20044;-86
2023/06/05 06:42:37;;;;;;;9.60;2.33;;;13.60;99.90;;;;;;5095018;28;20448;-85
2023/06/05 06:45:05;;;;;;;9.20;2.58;;;13.60;99.90;;;;;;5095561;28;20056;-83
2023/06/05 06:47:32;;;;;;;12.23;2.83;;;13.70;99.90;;;;;;5107796;28;20472;-80
2023/06/05 06:49:58;;;;;;;12.65;3.17;;;13.60;99.90;;;;;;5114446;28;20051;-82
2023/06/05 06:52:23;;;;;;;8.15;2.53;;;13.80;99.90;;;;;;5114447;28;20032;-81
2023/06/05 06:54:49;;;;;;;4.90;2.33;;;13.80;99.90;;;;;;5114642;28;20126;-83
2023/06/05 06:57:15;;;;;;;13.65;3.28;;;13.80;99.90;;;;;;5114470;28;20479;-84
2023/06/05 06:59:41;;;;;;;9.95;2.90;;;13.80;99.90;;;;;;5114672;28;20035;-85
2023/06/05 07:02:21;;;;;;;11.45;2.70;;;13.80;99.90;;;;;;5114521;28;20070;-86
2023/06/05 07:04:48;;;;;;;8.90;2.78;;;13.80;99.90;;;;;;5114599;28;20114;-83
2023/06/05 07:07:15;;;;;;;5.95;2.85;;;13.90;99.90;;;;;;5114091;28;20501;-85
2023/06/05 07:09:42;;;;;;;8.45;3.05;;;13.60;99.90;;;;;;5114365;28;20051;-83
2023/06/05 07:12:09;;;;;;;4.95;2.58;;;13.50;99.90;;;;;;5114442;28;20158;-84
2023/06/05 07:14:36;;;;;;;8.98;2.92;;;13.30;99.90;;;;;;5115647;28;20047;-84
2023/06/05 07:17:05;;;;;;;5.88;2.67;;;13.40;99.90;;;;;;5114099;28;20124;-83
2023/06/05 07:19:32;;;;;;;7.43;2.97;;;13.60;99.90;;;;;;5113900;28;20478;-81
2023/06/05 07:22:00;;;;;;;6.00;2.67;;;13.60;99.90;;;;;;5114227;28;20086;-80
2023/06/05 07:24:27;;;;;;;9.80;2.47;;;13.50;99.90;;;;;;5113544;28;20438;-80
2023/06/05 07:26:58;;;;;;;11.57;2.70;;;13.60;99.90;;;;;;5113910;28;20085;-90
2023/06/05 07:29:25;;;;;;;7.95;2.40;;;13.70;99.90;;;;;;5113838;28;20044;-80
2023/06/05 07:31:55;;;;;;;6.40;2.28;;;13.80;99.90;;;;;;5114007;28;20055;-83
2023/06/05 07:34:22;;;;;;;7.68;2.13;;;13.70;99.90;;;;;;5113652;28;20086;-83
2023/06/05 07:36:51;;;;;;;5.40;2.55;;;13.70;99.90;;;;;;5113822;28;20122;-80
2023/06/05 07:39:17;;;;;;;7.03;2.22;;;13.80;99.90;;;;;;5113831;28;20055;-85
2023/06/05 07:41:43;;;;;;;8.82;2.45;;;13.90;99.90;;;;;;5115364;28;20035;-80
2023/06/05 07:44:11;;;;;;;5.30;2.00;;;14.00;99.90;;;;;;5113579;28;20436;-84
2023/06/05 07:46:40;;;;;;;5.40;2.17;;;14.00;99.90;;;;;;5113481;28;20138;-83
2023/06/05 07:49:09;;;;;;;5.18;2.03;;;14.00;99.90;;;;;;5113317;28;20555;-82
2023/06/05 07:51:38;;;;;;;6.13;2.63;;;14.10;99.90;;;;;;5114697;28;20043;-83
2023/06/05 07:54:08;;;;;;;6.80;2.40;;;14.00;99.90;;;;;;5113682;28;20074;-83
2023/06/05 07:56:34;;;;;;;5.00;2.10;;;14.10;99.90;;;;;;5114694;28;20047;-84
2023/06/05 07:59:02;;;;;;;6.95;2.35;;;14.30;99.90;;;;;;5115817;28;20403;-83
2023/06/05 08:01:29;;;;;;;5.70;2.22;;;14.20;99.90;;;;;;5113382;28;20054;-83
2023/06/05 08:03:55;;;;;;;7.47;2.17;;;14.30;99.90;;;;;;5113618;28;20397;-82
2023/06/05 08:06:24;;;;;;;3.58;1.77;;;14.20;99.90;;;;;;5113351;28;20052;-82
2023/06/05 08:08:50;;;;;;;6.15;2.10;;;14.20;99.90;;;;;;5113364;28;20067;-82
2023/06/05 08:11:21;;;;;;;3.88;2.38;;;14.30;99.90;;;;;;5113308;28;20043;-78
2023/06/05 08:13:50;;;;;;;8.90;2.47;;;14.40;99.90;;;;;;5113238;28;20145;-82
2023/06/05 08:16:16;;;;;;;3.58;1.65;;;14.60;99.90;;;;;;5113136;28;20130;-82
2023/06/05 08:18:42;;;;;;;7.55;2.05;;;14.60;99.90;;;;;;5112803;28;20409;-82
2023/06/05 08:21:17;;;;;;;14.30;2.45;;;14.60;99.90;;;;;;5113108;28;20040;-83
2023/06/05 08:23:42;;;;;;;9.07;2.00;;;14.80;99.90;;;;;;5112831;28;20048;-83
2023/06/05 08:26:11;;;;;;;3.83;1.13;;;14.70;99.90;;;;;;5113004;28;20036;-83
2023/06/05 08:28:41;;;;;;;9.00;1.88;;;14.50;99.90;;;;;;5113058;28;20054;-83
2023/06/05 08:31:07;;;;;;;19.83;3.70;;;14.70;99.90;;;;;;5112551;28;20044;-84
2023/06/05 08:33:36;;;;;;;11.45;2.20;;;14.90;99.90;;;;;;5113945;28;20387;-84
2023/06/05 08:36:03;;;;;;;8.30;1.88;;;15.00;99.90;;;;;;5113894;28;20425;-81
2023/06/05 08:38:30;;;;;;;8.68;2.20;;;15.10;99.90;;;;;;5113949;28;20100;-79
2023/06/05 08:41:05;;;;;;;8.73;2.03;;;15.00;99.90;;;;;;5112923;28;20122;-80
2023/06/05 08:43:31;;;;;;;3.80;1.67;;;15.10;99.90;;;;;;5113637;28;20451;-84
2023/06/05 08:45:57;;;;;;;7.22;2.00;;;15.10;99.90;;;;;;5113600;28;20116;-84
2023/06/05 08:48:25;;;;;;;9.27;2.72;;;15.10;99.90;;;;;;5112579;28;20043;-84
2023/06/05 08:50:51;;;;;;;4.15;2.00;;;15.20;99.90;;;;;;5112443;28;20071;-82
2023/06/05 08:53:20;;;;;;;12.20;3.13;;;15.30;99.90;;;;;;5112731;28;20078;-83
2023/06/05 08:55:46;;;;;;;5.75;2.42;;;15.30;99.90;;;;;;5112448;28;20075;-84
2023/06/05 08:58:13;;;;;;;13.05;2.35;;;15.40;99.90;;;;;;5112560;28;20066;-84
2023/06/05 09:00:40;;;;;;;8.77;2.00;;;15.60;99.90;;;;;;5112746;28;20035;-83
2023/06/05 09:03:08;;;;;;;5.38;1.90;;;15.80;99.90;;;;;;5112257;28;20047;-83
2023/06/05 09:05:35;;;;;;;5.38;2.20;;;15.80;99.90;;;;;;5112317;28;20368;-83
2023/06/05 09:08:02;;;;;;;6.00;1.85;;;15.70;99.90;;;;;;5115878;28;20483;-84
2023/06/05 09:10:28;;;;;;;5.22;1.85;;;15.70;99.90;;;;;;5116677;28;20070;-83
2023/06/05 09:13:02;;;;;;;5.15;1.42;;;15.70;99.90;;;;;;5116607;28;20486;-84
2023/06/05 09:15:33;;;;;;;2.65;1.25;;;15.60;99.90;;;;;;5116400;28;20088;-83
2023/06/05 09:18:12;;;;;;;3.85;1.60;;;15.60;99.90;;;;;;5116713;28;20079;-84
2023/06/05 09:20:45;;;;;;;2.70;1.30;;;15.50;99.90;;;;;;5116640;28;20115;-84
2023/06/05 09:23:28;;;;;;;2.50;1.40;;;15.70;99.90;;;;;;5116182;28;20054;-83
2023/06/05 09:25:56;;;;;;;4.65;1.20;;;16.00;99.90;;;;;;5117663;28;20054;-84
2023/06/05 09:28:22;;;;;;;4.55;1.30;;;15.90;99.90;;;;;;5116206;28;20059;-83
2023/06/05 09:30:56;;;;;;;3.50;1.15;;;15.80;99.90;;;;;;5116418;28;20036;-82
2023/06/05 09:33:23;;;;;;;2.35;1.10;;;15.70;99.90;;;;;;5116083;28;20075;-82
2023/06/05 09:36:08;;;;;;;5.07;1.63;;;15.60;99.90;;;;;;5116313;28;20075;-83
2023/06/05 09:38:34;;;;;;;6.05;1.40;;;15.50;99.90;;;;;;5117614;28;20047;-84
2023/06/05 09:41:07;;;;;;;5.20;1.67;;;15.70;99.90;;;;;;5116098;28;20446;-84
2023/06/05 09:43:33;;;;;;;2.05;0.82;;;15.90;99.90;;;;;;5116571;28;20046;-83
2023/06/05 09:46:07;;;;;;;11.55;2.00;;;16.30;99.90;;;;;;5115650;28;20043;-80
2023/06/05 09:48:34;;;;;;;4.00;0.95;;;16.50;99.90;;;;;;5115762;28;20054;-84
2023/06/05 09:51:21;;;;;;;8.18;1.20;;;16.60;99.90;;;;;;5115639;28;20047;-82
2023/06/05 09:53:53;;;;;;;2.65;0.75;;;16.90;99.90;;;;;;5115330;28;20384;-80
2023/06/05 09:56:21;;;;;;;2.97;1.10;;;16.40;99.90;;;;;;5115806;28;20047;-80
2023/06/05 09:58:49;;;;;;;2.70;1.00;;;16.60;99.90;;;;;;5116895;28;20035;-80
2023/06/05 10:01:22;;;;;;;4.57;1.13;;;16.40;99.90;;;;;;5115470;28;20063;-80
2023/06/05 10:03:56;;;;;;;;;;;16.40;99.90;;;;;;5115952;28;20557;-80
2023/06/05 10:06:23;;;;;;;2.05;1.02;;;16.50;99.90;;;;;;5115668;28;19972;-81
2023/06/05 10:08:52;;;;;;;2.95;1.10;;;16.80;99.90;;;;;;5115131;28;20134;-83
2023/06/05 10:11:20;;;;;;;7.07;1.42;;;16.60;99.90;;;;;;5115757;28;20051;-80
2023/06/05 10:13:48;;;;;;;2.65;1.30;;;17.00;99.90;;;;;;5116771;27;20050;-84
2023/06/05 10:16:15;;;;;;;3.70;1.50;;;17.20;99.90;;;;;;5115162;28;20043;-83
2023/06/05 10:18:41;;;;;;;4.80;1.50;;;17.30;99.90;;;;;;5114807;28;20051;-87
2023/06/05 10:21:07;;;;;;;3.67;1.30;;;17.20;99.90;;;;;;5115516;28;20047;-82
2023/06/05 10:23:35;;;;;;;4.03;1.52;;;17.10;99.90;;;;;;5114982;28;20047;-84
2023/06/05 10:26:09;;;;;;;3.20;1.85;;;17.20;99.90;;;;;;5115190;28;20099;-83
2023/06/05 10:28:56;;;;;;;6.18;1.90;;;17.30;99.90;;;;;;5115084;28;20051;-81
2023/06/05 10:31:35;;;;;;;5.35;1.73;;;17.70;99.90;;;;;;5116200;28;20058;-83
2023/06/05 10:34:30;;;;;;;4.80;1.33;;;18.20;99.90;;;;;;5114741;28;20052;-83
2023/06/05 10:37:21;;;;;;;3.90;1.30;;;18.00;99.90;;;;;;5099645;28;20131;-84
2023/06/05 10:39:49;;;;;;;3.15;1.45;;;17.50;99.90;;;;;;5107663;28;20043;-79
2023/06/05 10:42:29;;;;;;;2.63;1.40;;;18.10;99.90;;;;;;5095101;28;20143;-83
2023/06/05 10:44:55;;;;;;;3.10;1.30;;;18.30;99.90;;;;;;5107835;27;20047;-84
2023/06/05 10:47:33;;;;;;;4.00;1.50;;;18.50;99.90;;;;;;5085111;28;20047;-84
2023/06/05 10:50:20;;;;;;;6.78;1.70;;;18.30;99.90;;;;;;5085282;28;20058;-83
2023/06/05 10:52:50;;;;;;;3.30;1.75;;;18.30;99.90;;;;;;5085609;28;20169;-83
2023/06/05 10:55:17;;;;;;;3.88;1.50;;;18.50;99.90;;;;;;5085027;28;20437;-85
2023/06/05 10:58:01;;;;;;;3.83;1.88;;;18.40;99.90;;;;;;5085233;28;20044;-84
2023/06/05 11:00:32;;;;;;;4.28;1.80;;;18.40;99.90;;;;;;5085323;28;20135;-85
2023/06/05 11:02:59;;;;;;;3.87;1.50;;;18.60;99.90;;;;;;5084885;28;20606;-84
2023/06/05 11:05:26;;;;;;;9.32;2.22;;;18.80;99.90;;;;;;5086864;28;20282;-82
2023/06/05 11:08:15;;;;;;;10.25;2.95;;;18.70;99.90;;;;;;5085188;28;20048;-84
2023/06/05 11:11:04;;;;;;;4.05;1.75;;;19.10;99.90;;;;;;5086184;28;20040;-84
2023/06/05 11:13:55;;;;;;;3.35;1.80;;;18.70;99.90;;;;;;5085246;28;20040;-83
2023/06/05 11:16:29;;;;;;;3.88;1.85;;;18.60;99.90;;;;;;5084817;28;20414;-83
2023/06/05 11:19:21;;;;;;;7.50;1.98;;;18.50;99.90;;;;;;5085402;28;20055;-84
2023/06/05 11:22:04;;;;;;;4.80;1.98;;;18.40;99.90;;;;;;5084498;28;20089;-83
2023/06/05 11:24:30;;;;;;;3.45;1.83;;;18.50;99.90;;;;;;5084001;28;20044;-82
2023/06/05 11:26:55;;;;;;;4.82;1.90;;;18.30;99.90;;;;;;5084696;28;20403;-84
2023/06/05 11:29:25;;;;;;;3.13;1.42;;;18.30;99.90;;;;;;5084586;28;20051;-84
2023/06/05 11:31:51;;;;;;;9.88;2.00;;;18.30;99.90;;;;;;5084562;28;20148;-84
2023/06/05 11:34:17;;;;;;;5.32;1.73;;;18.40;99.90;;;;;;5084472;28;20399;-83
2023/06/05 11:36:44;;;;;;;4.00;1.95;;;18.90;99.90;;;;;;5084067;28;20101;-83
2023/06/05 11:39:10;;;;;;;4.93;1.60;;;19.10;99.90;;;;;;5084546;28;20044;-86
2023/06/05 11:41:47;;;;;;;3.40;1.55;;;18.80;99.90;;;;;;5083770;28;20139;-84
2023/06/05 11:44:14;;;;;;;3.17;1.70;;;18.50;99.90;;;;;;5084501;28;20047;-86
2023/06/05 11:46:44;;;;;;;7.40;1.75;;;18.30;99.90;;;;;;5083417;28;20135;-83
2023/06/05 11:49:30;;;;;;;6.20;1.67;;;18.80;99.90;;;;;;5086038;28;20055;-86
2023/06/05 11:51:56;;;;;;;3.15;1.42;;;18.60;99.90;;;;;;5084561;28;20051;-89
2023/06/05 11:54:25;;;;;;;9.48;2.10;;;18.40;99.90;;;;;;5084775;28;20079;-86
2023/06/05 11:56:55;;;;;;;2.80;1.60;;;18.80;99.90;;;;;;5097896;28;20509;-86
2023/06/05 11:59:21;;;;;;;3.50;1.67;;;18.60;99.90;;;;;;5106747;28;20108;-83
2023/06/05 12:01:49;;;;;;;4.63;1.95;;;18.20;99.90;;;;;;5104255;28;20039;-84
2023/06/05 12:04:15;;;;;;;5.18;2.22;;;18.40;99.90;;;;;;5105889;28;20622;-87
2023/06/05 12:06:42;;;;;;;5.97;2.40;;;18.70;99.90;;;;;;5106254;28;20054;-86
2023/06/05 12:09:09;;;;;;;7.28;2.30;;;18.60;99.90;;;;;;5105473;28;20044;-85
2023/06/05 12:11:35;;;;;;;5.93;2.47;;;18.60;99.90;;;;;;5105858;28;20526;-85
2023/06/05 12:14:01;;;;;;;4.22;2.35;;;18.70;99.90;;;;;;5105223;28;20059;-83
2023/06/05 12:16:45;;;;;;;8.75;2.50;;;18.50;99.90;;;;;;5104704;28;20184;-86
2023/06/05 12:19:16;;;;;;;10.45;2.78;;;18.70;99.90;;;;;;5113389;28;20058;-85
2023/06/05 12:21:54;;;;;;;6.85;2.35;;;19.10;99.90;;;;;;5112929;28;20051;-88
2023/06/05 12:24:26;;;;;;;21.05;4.53;;;19.40;99.90;;;;;;5092514;28;20044;-84
2023/06/05 12:26:58;;;;;;;11.13;2.70;;;19.30;99.90;;;;;;5099132;28;20050;-83
2023/06/05 12:29:30;;;;;;;10.95;2.88;;;19.50;99.90;;;;;;5112319;28;20085;-82
2023/06/05 12:32:01;;;;;;;4.93;2.78;;;19.70;99.90;;;;;;5112917;28;20047;-82
2023/06/05 12:34:51;;;;;;;13.02;3.17;;;19.40;99.90;;;;;;5112665;28;20040;-82
2023/06/05 12:37:23;;;;;;;16.08;3.70;;;19.50;99.90;;;;;;5092510;28;20051;-82
2023/06/05 12:39:49;;;;;;;5.60;2.90;;;19.70;99.90;;;;;;5093775;28;20123;-82
2023/06/05 12:42:14;;;;;;;6.50;2.70;;;20.00;99.90;;;;;;5092135;28;20189;-78
2023/06/05 12:44:40;;;;;;;7.90;2.90;;;20.20;99.90;;;;;;5091957;28;20071;-83
2023/06/05 12:47:06;;;;;;;8.23;2.90;;;20.10;99.90;;;;;;5093339;28;20052;-83
2023/06/05 12:49:32;;;;;;;6.35;2.95;;;20.20;99.90;;;;;;5109242;28;20063;-83
2023/06/05 12:51:57;;;;;;;7.97;3.28;;;20.10;99.90;;;;;;5125917;27;20040;-82
2023/06/05 12:54:23;;;;;;;9.68;2.67;;;20.30;99.90;;;;;;5112522;28;20406;-84
2023/06/05 12:56:49;;;;;;;7.15;3.20;;;20.50;99.90;;;;;;5112553;28;20100;-83